In Rescue
 
Open Full Screen Window  High Contrast Mode
Wind Gusting 00 knots
07
May 20, 2019 1:26 PM CDT
Weather Information
Wind Direction
  090 °
Wind Speed
  07 kt (8 mph)
Wind Gust
  00 kt (0 mph)
Altimeter
30.16 in
Visibility
10 SM
Temperature
15° C
59° F
Dewpoint
02° C
36° F
Humidity
42%
1hr Rain Fall
00.00 in.
24hr Rain Fall
00.00 in.
Sky Condition
Scattered @ 5,000 ft
VFR

METAR KBBB 201826Z AUTO 09007KT 10SM SCT050 15/02 A3016 RMK AO2

FAA Disclaimer: The data displayed is for advisory purposes only and is not to be used for flight planning or operations.